Terminal Aerodrome Forecast
Issued by NWS

Home | Current Version | Previous Version | Text Only | Print | Product List | Glossary On
Versions: 1 2 3 4 5 6 7 8 9 10 11 12 13 14 15 16 17 18 19 20 21 22 23 24 25 26 27 28 29 30 31 32 33 34 35 36 37 38
000
FTUS44 KHGX 211202 AAA
TAFLBX
TAF AMD
KLBX 211202Z 2112/2212 00000KT P6SM VCSH BKN025 OVC080
     FM211800 18007KT P6SM SCT025 BKN040 BKN250
     FM220300 01004KT P6SM VCSH BKN025
     FM220900 01010G20KT P6SM SCT007 BKN015=

USA.gov is the U.S. government's official web portal to all federal, state and local government web resources and services.